sensor_id;sensor_type;location;lat;lon;timestamp;pressure;altitude;pressure_sealevel;temperature;humidity
78825;BME280;68176;45.554;10.220;2023-10-31T00:02:08;98401.97;;;17.45;70.68
78825;BME280;68176;45.554;10.220;2023-10-31T00:04:38;98384.44;;;17.44;70.78
78825;BME280;68176;45.554;10.220;2023-10-31T00:07:08;98397.91;;;17.42;70.52
78825;BME280;68176;45.554;10.220;2023-10-31T00:09:39;98399.53;;;17.43;70.71
78825;BME280;68176;45.554;10.220;2023-10-31T00:12:07;98413.13;;;17.53;70.69
78825;BME280;68176;45.554;10.220;2023-10-31T00:14:39;98395.47;;;17.41;70.70
78825;BME280;68176;45.554;10.220;2023-10-31T00:17:08;98401.34;;;17.43;70.47
78825;BME280;68176;45.554;10.220;2023-10-31T00:19:37;98421.31;;;17.52;70.72
78825;BME280;68176;45.554;10.220;2023-10-31T00:22:08;98419.47;;;17.52;70.48
78825;BME280;68176;45.554;10.220;2023-10-31T00:24:37;98409.69;;;17.46;70.80
78825;BME280;68176;45.554;10.220;2023-10-31T00:27:08;98425.19;;;17.49;70.53
78825;BME280;68176;45.554;10.220;2023-10-31T00:29:37;98408.50;;;17.49;70.63
78825;BME280;68176;45.554;10.220;2023-10-31T00:32:07;98403.19;;;17.49;70.79
78825;BME280;68176;45.554;10.220;2023-10-31T00:34:38;98417.03;;;17.51;70.70
78825;BME280;68176;45.554;10.220;2023-10-31T00:37:07;98412.97;;;17.55;70.97
78825;BME280;68176;45.554;10.220;2023-10-31T00:39:38;98417.84;;;17.51;71.00
78825;BME280;68176;45.554;10.220;2023-10-31T00:42:07;98416.59;;;17.54;70.71
78825;BME280;68176;45.554;10.220;2023-10-31T00:44:38;98418.44;;;17.53;70.85
78825;BME280;68176;45.554;10.220;2023-10-31T00:47:08;98420.28;;;17.53;70.60
78825;BME280;68176;45.554;10.220;2023-10-31T00:49:41;98394.28;;;17.30;70.83
78825;BME280;68176;45.554;10.220;2023-10-31T00:52:15;98390.00;;;17.29;70.79
78825;BME280;68176;45.554;10.220;2023-10-31T00:54:41;98397.16;;;17.29;70.94
78825;BME280;68176;45.554;10.220;2023-10-31T00:57:09;98401.44;;;17.30;70.53
78825;BME280;68176;45.554;10.220;2023-10-31T01:00:05;98398.78;;;17.30;70.92
78825;BME280;68176;45.554;10.220;2023-10-31T01:02:57;98408.53;;;17.36;70.62
78825;BME280;68176;45.554;10.220;2023-10-31T01:05:27;98407.75;;;17.29;70.81
78825;BME280;68176;45.554;10.220;2023-10-31T01:08:34;98427.47;;;17.46;70.97
78825;BME280;68176;45.554;10.220;2023-10-31T01:12:14;98397.34;;;17.27;70.64
78825;BME280;68176;45.554;10.220;2023-10-31T01:26:26;98380.47;;;17.22;70.91
78825;BME280;68176;45.554;10.220;2023-10-31T01:28:52;98380.03;;;17.25;70.74
78825;BME280;68176;45.554;10.220;2023-10-31T05:39:12;98201.06;;;17.29;69.23
78825;BME280;68176;45.554;10.220;2023-10-31T05:41:38;98200.69;;;17.25;69.01
78825;BME280;68176;45.554;10.220;2023-10-31T05:54:24;98265.78;;;17.46;69.20
78825;BME280;68176;45.554;10.220;2023-10-31T05:56:54;98249.94;;;17.39;69.13
78825;BME280;68176;45.554;10.220;2023-10-31T05:59:19;98259.28;;;17.42;69.11
78825;BME280;68176;45.554;10.220;2023-10-31T06:01:48;98266.19;;;17.43;69.09
78825;BME280;68176;45.554;10.220;2023-10-31T06:04:18;98274.13;;;17.43;69.26
78825;BME280;68176;45.554;10.220;2023-10-31T06:06:48;98278.41;;;17.44;69.09
78825;BME280;68176;45.554;10.220;2023-10-31T06:09:18;98289.03;;;17.44;69.33
78825;BME280;68176;45.554;10.220;2023-10-31T06:11:48;98304.94;;;17.44;69.10
78825;BME280;68176;45.554;10.220;2023-10-31T06:14:18;98315.09;;;17.47;69.19
78825;BME280;68176;45.554;10.220;2023-10-31T06:16:48;98320.41;;;17.47;69.19
78825;BME280;68176;45.554;10.220;2023-10-31T06:39:50;98358.34;;;17.41;68.92
78825;BME280;68176;45.554;10.220;2023-10-31T06:42:17;98347.75;;;17.41;69.26
78825;BME280;68176;45.554;10.220;2023-10-31T06:44:46;98339.22;;;17.39;69.05
78825;BME280;68176;45.554;10.220;2023-10-31T06:47:17;98330.91;;;17.29;69.22
78825;BME280;68176;45.554;10.220;2023-10-31T06:49:46;98323.69;;;17.42;69.37
78825;BME280;68176;45.554;10.220;2023-10-31T06:52:19;98307.84;;;17.36;69.09
78825;BME280;68176;45.554;10.220;2023-10-31T06:54:47;98316.78;;;17.41;69.08
78825;BME280;68176;45.554;10.220;2023-10-31T06:57:17;98306.59;;;17.38;69.09
78825;BME280;68176;45.554;10.220;2023-10-31T06:59:47;98321.25;;;17.41;69.31
78825;BME280;68176;45.554;10.220;2023-10-31T07:02:17;98346.31;;;17.45;69.32
78825;BME280;68176;45.554;10.220;2023-10-31T07:04:47;98360.00;;;17.42;69.34
78825;BME280;68176;45.554;10.220;2023-10-31T07:07:17;98398.69;;;17.43;69.21
78825;BME280;68176;45.554;10.220;2023-10-31T07:09:47;98404.00;;;17.43;69.16
78825;BME280;68176;45.554;10.220;2023-10-31T07:12:17;98417.97;;;17.19;67.67
78825;BME280;68176;45.554;10.220;2023-10-31T07:14:46;98427.84;;;16.85;68.01
78825;BME280;68176;45.554;10.220;2023-10-31T07:17:17;98431.91;;;16.88;68.01
78825;BME280;68176;45.554;10.220;2023-10-31T07:19:46;98442.69;;;16.93;68.56
78825;BME280;68176;45.554;10.220;2023-10-31T07:22:43;98432.91;;;16.93;68.29
78825;BME280;68176;45.554;10.220;2023-10-31T07:25:11;98435.94;;;17.03;68.46
78825;BME280;68176;45.554;10.220;2023-10-31T07:28:03;98417.22;;;16.98;68.67
78825;BME280;68176;45.554;10.220;2023-10-31T07:30:52;98421.69;;;17.04;68.78
78825;BME280;68176;45.554;10.220;2023-10-31T07:33:26;98397.63;;;17.06;68.85
78825;BME280;68176;45.554;10.220;2023-10-31T07:36:19;98379.31;;;17.04;67.92
78825;BME280;68176;45.554;10.220;2023-10-31T07:38:44;98364.97;;;16.48;63.85
78825;BME280;68176;45.554;10.220;2023-10-31T07:41:13;98366.97;;;16.39;65.39
78825;BME280;68176;45.554;10.220;2023-10-31T07:43:43;98355.41;;;16.21;64.88
78825;BME280;68176;45.554;10.220;2023-10-31T07:46:13;98334.66;;;16.18;65.96
78825;BME280;68176;45.554;10.220;2023-10-31T07:48:43;98317.13;;;16.36;65.71
78825;BME280;68176;45.554;10.220;2023-10-31T07:51:13;98308.38;;;16.36;65.25
78825;BME280;68176;45.554;10.220;2023-10-31T07:53:43;98294.34;;;16.29;65.08
78825;BME280;68176;45.554;10.220;2023-10-31T07:56:18;98303.31;;;16.28;65.19
78825;BME280;68176;45.554;10.220;2023-10-31T07:58:48;98305.13;;;16.34;65.62
78825;BME280;68176;45.554;10.220;2023-10-31T08:01:14;98309.00;;;16.38;64.91
78825;BME280;68176;45.554;10.220;2023-10-31T08:03:43;98290.25;;;16.33;64.26
78825;BME280;68176;45.554;10.220;2023-10-31T08:06:13;98309.59;;;16.27;65.42
78825;BME280;68176;45.554;10.220;2023-10-31T08:08:43;98317.59;;;16.07;65.04
78825;BME280;68176;45.554;10.220;2023-10-31T08:11:13;98326.88;;;15.64;67.22
78825;BME280;68176;45.554;10.220;2023-10-31T08:13:43;98332.59;;;15.67;66.16
78825;BME280;68176;45.554;10.220;2023-10-31T08:16:18;98336.25;;;15.79;67.06
78825;BME280;68176;45.554;10.220;2023-10-31T08:18:44;98361.47;;;15.62;66.88
78825;BME280;68176;45.554;10.220;2023-10-31T08:21:13;98351.47;;;15.58;66.55
78825;BME280;68176;45.554;10.220;2023-10-31T08:23:43;98374.75;;;15.28;66.58
78825;BME280;68176;45.554;10.220;2023-10-31T08:26:13;98392.69;;;15.45;67.05
78825;BME280;68176;45.554;10.220;2023-10-31T08:28:43;98396.72;;;15.41;67.35
78825;BME280;68176;45.554;10.220;2023-10-31T08:31:13;98397.09;;;15.32;66.77
78825;BME280;68176;45.554;10.220;2023-10-31T08:33:43;98390.66;;;15.41;68.16
78825;BME280;68176;45.554;10.220;2023-10-31T08:36:13;98404.97;;;15.66;66.17
78825;BME280;68176;45.554;10.220;2023-10-31T08:38:43;98413.91;;;15.65;66.47
78825;BME280;68176;45.554;10.220;2023-10-31T08:41:13;98413.69;;;15.60;67.34
78825;BME280;68176;45.554;10.220;2023-10-31T08:43:45;98436.31;;;15.69;66.50
78825;BME280;68176;45.554;10.220;2023-10-31T08:46:13;98447.06;;;15.68;66.40
78825;BME280;68176;45.554;10.220;2023-10-31T08:48:43;98457.47;;;15.82;66.41
78825;BME280;68176;45.554;10.220;2023-10-31T08:51:13;98468.03;;;15.82;67.36
78825;BME280;68176;45.554;10.220;2023-10-31T08:53:43;98478.72;;;15.20;69.70
78825;BME280;68176;45.554;10.220;2023-10-31T08:56:13;98477.03;;;15.06;69.56
78825;BME280;68176;45.554;10.220;2023-10-31T08:58:43;98475.44;;;15.12;70.14
78825;BME280;68176;45.554;10.220;2023-10-31T09:01:13;98484.13;;;15.40;69.69
78825;BME280;68176;45.554;10.220;2023-10-31T09:03:43;98479.63;;;15.34;70.03
78825;BME280;68176;45.554;10.220;2023-10-31T09:06:14;98503.97;;;15.29;71.12
78825;BME280;68176;45.554;10.220;2023-10-31T09:08:43;98509.84;;;14.69;72.61
78825;BME280;68176;45.554;10.220;2023-10-31T09:11:13;98524.06;;;14.96;71.96
78825;BME280;68176;45.554;10.220;2023-10-31T09:13:43;98525.72;;;15.04;70.48
78825;BME280;68176;45.554;10.220;2023-10-31T09:16:13;98529.75;;;14.72;70.34
78825;BME280;68176;45.554;10.220;2023-10-31T09:18:43;98536.78;;;14.86;68.34
78825;BME280;68176;45.554;10.220;2023-10-31T09:21:14;98533.72;;;14.61;67.03
78825;BME280;68176;45.554;10.220;2023-10-31T09:23:43;98549.31;;;14.35;66.21
78825;BME280;68176;45.554;10.220;2023-10-31T09:26:13;98545.28;;;14.39;67.96
78825;BME280;68176;45.554;10.220;2023-10-31T09:28:43;98565.47;;;14.32;66.73
78825;BME280;68176;45.554;10.220;2023-10-31T09:31:15;98578.00;;;14.09;68.15
78825;BME280;68176;45.554;10.220;2023-10-31T09:33:45;98578.78;;;14.24;66.69
78825;BME280;68176;45.554;10.220;2023-10-31T09:36:13;98581.63;;;14.08;66.70
78825;BME280;68176;45.554;10.220;2023-10-31T09:38:44;98588.03;;;13.99;68.42
78825;BME280;68176;45.554;10.220;2023-10-31T09:41:13;98591.69;;;14.19;67.67
78825;BME280;68176;45.554;10.220;2023-10-31T09:43:44;98604.19;;;13.96;67.93
78825;BME280;68176;45.554;10.220;2023-10-31T09:46:14;98605.06;;;14.03;66.67
78825;BME280;68176;45.554;10.220;2023-10-31T09:48:43;98609.41;;;14.39;66.75
78825;BME280;68176;45.554;10.220;2023-10-31T09:51:14;98616.00;;;14.50;65.70
78825;BME280;68176;45.554;10.220;2023-10-31T09:53:44;98626.00;;;14.55;65.06
78825;BME280;68176;45.554;10.220;2023-10-31T09:56:14;98632.47;;;14.52;64.83
78825;BME280;68176;45.554;10.220;2023-10-31T09:58:44;98643.03;;;14.73;65.48
78825;BME280;68176;45.554;10.220;2023-10-31T10:01:14;98644.88;;;14.73;65.21
78825;BME280;68176;45.554;10.220;2023-10-31T10:03:44;98655.44;;;14.37;64.91
78825;BME280;68176;45.554;10.220;2023-10-31T10:06:14;98648.91;;;14.33;64.32
78825;BME280;68176;45.554;10.220;2023-10-31T10:08:45;98636.88;;;14.45;62.55
78825;BME280;68176;45.554;10.220;2023-10-31T10:11:14;98651.94;;;14.51;65.26
78825;BME280;68176;45.554;10.220;2023-10-31T10:13:44;98676.22;;;14.82;62.79
78825;BME280;68176;45.554;10.220;2023-10-31T10:16:31;98645.53;;;14.60;61.34
78825;BME280;68176;45.554;10.220;2023-10-31T10:18:57;98691.13;;;15.11;62.34
78825;BME280;68176;45.554;10.220;2023-10-31T10:21:22;98687.19;;;15.22;63.75
78825;BME280;68176;45.554;10.220;2023-10-31T10:23:51;98737.63;;;14.91;64.83
78825;BME280;68176;45.554;10.220;2023-10-31T10:26:21;98742.88;;;15.06;64.67
78825;BME280;68176;45.554;10.220;2023-10-31T10:28:51;98720.75;;;15.28;64.21
78825;BME280;68176;45.554;10.220;2023-10-31T10:31:23;98770.56;;;15.31;62.53
78825;BME280;68176;45.554;10.220;2023-10-31T10:33:51;98776.44;;;14.76;62.05
78825;BME280;68176;45.554;10.220;2023-10-31T10:36:21;98781.38;;;15.15;62.32
78825;BME280;68176;45.554;10.220;2023-10-31T10:38:56;98786.88;;;15.34;60.50
78825;BME280;68176;45.554;10.220;2023-10-31T10:41:25;98796.16;;;15.66;60.44
78825;BME280;68176;45.554;10.220;2023-10-31T10:43:56;98810.56;;;15.28;58.26
78825;BME280;68176;45.554;10.220;2023-10-31T10:46:23;98822.94;;;15.63;58.50
78825;BME280;68176;45.554;10.220;2023-10-31T10:48:55;98827.41;;;15.63;57.80
78825;BME280;68176;45.554;10.220;2023-10-31T10:51:26;98821.81;;;15.72;59.67
78825;BME280;68176;45.554;10.220;2023-10-31T10:56:34;98815.13;;;15.55;59.09
78825;BME280;68176;45.554;10.220;2023-10-31T10:59:08;98840.00;;;15.82;58.54
78825;BME280;68176;45.554;10.220;2023-10-31T11:01:38;98829.06;;;15.28;59.24
78825;BME280;68176;45.554;10.220;2023-10-31T11:04:05;98840.94;;;15.38;60.43
78825;BME280;68176;45.554;10.220;2023-10-31T11:06:33;98840.19;;;15.59;58.32
78825;BME280;68176;45.554;10.220;2023-10-31T11:09:02;98836.91;;;15.57;58.52
78825;BME280;68176;45.554;10.220;2023-10-31T11:11:32;98849.72;;;16.02;57.40
78825;BME280;68176;45.554;10.220;2023-10-31T11:14:02;98840.16;;;16.01;58.10
78825;BME280;68176;45.554;10.220;2023-10-31T11:16:48;98841.25;;;16.14;58.73
78825;BME280;68176;45.554;10.220;2023-10-31T11:19:15;98839.16;;;15.60;58.88
78825;BME280;68176;45.554;10.220;2023-10-31T11:22:02;98831.19;;;15.54;60.05
78825;BME280;68176;45.554;10.220;2023-10-31T11:24:32;98838.81;;;16.12;57.78
78825;BME280;68176;45.554;10.220;2023-10-31T11:27:00;98835.69;;;16.30;58.00
78825;BME280;68176;45.554;10.220;2023-10-31T11:29:25;98830.59;;;16.56;58.21
78825;BME280;68176;45.554;10.220;2023-10-31T11:31:54;98824.19;;;16.78;58.55
78825;BME280;68176;45.554;10.220;2023-10-31T11:34:23;98831.22;;;16.99;58.99
78825;BME280;68176;45.554;10.220;2023-10-31T11:36:52;98838.19;;;17.06;58.09
78825;BME280;68176;45.554;10.220;2023-10-31T11:39:21;98841.88;;;17.19;58.28
78825;BME280;68176;45.554;10.220;2023-10-31T11:41:54;98839.28;;;17.32;56.92
78825;BME280;68176;45.554;10.220;2023-10-31T11:44:23;98842.94;;;17.31;58.11
78825;BME280;68176;45.554;10.220;2023-10-31T11:46:52;98845.19;;;17.34;58.00
78825;BME280;68176;45.554;10.220;2023-10-31T11:49:45;98840.25;;;16.70;55.49
78825;BME280;68176;45.554;10.220;2023-10-31T11:52:17;98832.22;;;16.91;57.98
78825;BME280;68176;45.554;10.220;2023-10-31T11:54:43;98844.41;;;16.86;56.69
78825;BME280;68176;45.554;10.220;2023-10-31T11:57:09;98838.84;;;17.22;58.11
78825;BME280;68176;45.554;10.220;2023-10-31T11:59:38;98856.06;;;17.52;57.92
78825;BME280;68176;45.554;10.220;2023-10-31T12:02:14;98848.56;;;17.62;57.98
78825;BME280;68176;45.554;10.220;2023-10-31T12:04:39;98861.00;;;17.55;56.92
78825;BME280;68176;45.554;10.220;2023-10-31T12:07:07;98861.53;;;17.44;56.62
78825;BME280;68176;45.554;10.220;2023-10-31T12:09:47;98864.69;;;17.67;56.33
78825;BME280;68176;45.554;10.220;2023-10-31T12:12:13;98856.72;;;17.61;56.96
78825;BME280;68176;45.554;10.220;2023-10-31T12:14:38;98859.53;;;17.46;55.87
78825;BME280;68176;45.554;10.220;2023-10-31T12:17:07;98867.06;;;17.49;53.85
78825;BME280;68176;45.554;10.220;2023-10-31T12:19:37;98867.38;;;17.74;56.77
78825;BME280;68176;45.554;10.220;2023-10-31T12:22:14;98855.31;;;17.91;56.92
78825;BME280;68176;45.554;10.220;2023-10-31T12:24:40;98867.53;;;17.72;54.96
78825;BME280;68176;45.554;10.220;2023-10-31T12:27:07;98867.75;;;17.71;51.95
78825;BME280;68176;45.554;10.220;2023-10-31T12:29:37;98877.16;;;17.80;56.19
78825;BME280;68176;45.554;10.220;2023-10-31T12:32:12;98875.97;;;18.08;56.57
78825;BME280;68176;45.554;10.220;2023-10-31T12:34:43;98882.50;;;18.26;56.07
78825;BME280;68176;45.554;10.220;2023-10-31T12:37:09;98891.84;;;17.76;54.56
78825;BME280;68176;45.554;10.220;2023-10-31T12:39:37;98892.25;;;17.79;54.54
78825;BME280;68176;45.554;10.220;2023-10-31T12:42:07;98890.03;;;17.96;54.08
78825;BME280;68176;45.554;10.220;2023-10-31T12:44:37;98900.44;;;17.91;55.01
78825;BME280;68176;45.554;10.220;2023-10-31T12:47:07;98905.16;;;18.08;54.34
78825;BME280;68176;45.554;10.220;2023-10-31T12:49:40;98896.56;;;18.06;52.05
78825;BME280;68176;45.554;10.220;2023-10-31T12:52:07;98902.09;;;17.98;53.43
78825;BME280;68176;45.554;10.220;2023-10-31T12:54:37;98902.50;;;18.35;54.68
78825;BME280;68176;45.554;10.220;2023-10-31T12:57:08;98892.69;;;18.48;54.66
78825;BME280;68176;45.554;10.220;2023-10-31T12:59:38;98900.84;;;18.47;54.58
78825;BME280;68176;45.554;10.220;2023-10-31T13:02:08;98903.34;;;18.55;53.61
78825;BME280;68176;45.554;10.220;2023-10-31T13:04:37;98915.56;;;18.69;54.98
78825;BME280;68176;45.554;10.220;2023-10-31T13:07:08;98913.53;;;18.84;54.91
78825;BME280;68176;45.554;10.220;2023-10-31T13:09:38;98909.38;;;19.01;54.51
78825;BME280;68176;45.554;10.220;2023-10-31T13:12:08;98921.69;;;18.76;50.12
78825;BME280;68176;45.554;10.220;2023-10-31T13:14:37;98918.84;;;18.71;50.84
78825;BME280;68176;45.554;10.220;2023-10-31T13:17:07;98925.34;;;18.88;50.63
78825;BME280;68176;45.554;10.220;2023-10-31T13:19:37;98929.38;;;19.10;50.88
78825;BME280;68176;45.554;10.220;2023-10-31T13:22:07;98934.59;;;19.50;51.22
78825;BME280;68176;45.554;10.220;2023-10-31T13:24:37;98927.88;;;19.85;50.45
78825;BME280;68176;45.554;10.220;2023-10-31T13:27:07;98934.78;;;19.55;49.51
78825;BME280;68176;45.554;10.220;2023-10-31T13:29:37;98940.03;;;20.06;48.09
78825;BME280;68176;45.554;10.220;2023-10-31T13:32:07;98945.84;;;19.52;48.25
78825;BME280;68176;45.554;10.220;2023-10-31T13:34:37;98947.50;;;19.33;50.81
78825;BME280;68176;45.554;10.220;2023-10-31T13:37:07;98953.44;;;19.86;48.97
78825;BME280;68176;45.554;10.220;2023-10-31T13:39:37;98952.78;;;19.97;48.24
78825;BME280;68176;45.554;10.220;2023-10-31T13:42:07;98957.13;;;20.23;48.45
78825;BME280;68176;45.554;10.220;2023-10-31T13:44:38;98962.72;;;20.08;46.90
78825;BME280;68176;45.554;10.220;2023-10-31T13:47:08;98961.84;;;19.83;48.14
78825;BME280;68176;45.554;10.220;2023-10-31T13:49:37;98973.63;;;20.63;47.47
78825;BME280;68176;45.554;10.220;2023-10-31T13:52:07;98978.41;;;20.79;45.05
78825;BME280;68176;45.554;10.220;2023-10-31T13:54:38;98973.09;;;20.79;46.21
78825;BME280;68176;45.554;10.220;2023-10-31T13:57:07;98979.19;;;20.86;43.97
78825;BME280;68176;45.554;10.220;2023-10-31T13:59:39;98994.97;;;21.49;43.23
78825;BME280;68176;45.554;10.220;2023-10-31T14:02:08;98987.41;;;21.64;42.54
78825;BME280;68176;45.554;10.220;2023-10-31T14:04:38;98993.88;;;22.04;41.92
78825;BME280;68176;45.554;10.220;2023-10-31T14:07:08;98996.78;;;20.87;45.08
78825;BME280;68176;45.554;10.220;2023-10-31T14:09:38;99009.97;;;20.19;45.09
78825;BME280;68176;45.554;10.220;2023-10-31T14:12:08;99010.25;;;20.43;46.44
78825;BME280;68176;45.554;10.220;2023-10-31T14:14:38;99022.97;;;19.32;46.36
78825;BME280;68176;45.554;10.220;2023-10-31T14:17:07;99021.81;;;19.02;48.67
78825;BME280;68176;45.554;10.220;2023-10-31T14:19:38;99015.91;;;19.06;48.49
78825;BME280;68176;45.554;10.220;2023-10-31T14:22:08;99016.88;;;19.18;48.63
78825;BME280;68176;45.554;10.220;2023-10-31T14:24:38;99018.09;;;19.23;47.64
78825;BME280;68176;45.554;10.220;2023-10-31T15:23:06;99088.44;;;19.27;54.10
78825;BME280;68176;45.554;10.220;2023-10-31T17:12:48;99245.31;;;18.53;58.03
78825;BME280;68176;45.554;10.220;2023-10-31T17:15:17;99236.38;;;17.98;57.36
78825;BME280;68176;45.554;10.220;2023-10-31T17:17:42;99247.81;;;17.99;58.10
78825;BME280;68176;45.554;10.220;2023-10-31T17:20:11;99265.00;;;18.09;57.89
78825;BME280;68176;45.554;10.220;2023-10-31T17:22:41;99263.44;;;18.15;57.68
78825;BME280;68176;45.554;10.220;2023-10-31T17:25:11;99261.19;;;18.19;57.51
78825;BME280;68176;45.554;10.220;2023-10-31T17:27:41;99263.47;;;18.22;57.47
78825;BME280;68176;45.554;10.220;2023-10-31T17:30:11;99270.84;;;18.26;57.86
78825;BME280;68176;45.554;10.220;2023-10-31T17:32:41;99272.69;;;18.26;57.90
78825;BME280;68176;45.554;10.220;2023-10-31T17:35:11;99294.56;;;18.28;58.41
78825;BME280;68176;45.554;10.220;2023-10-31T17:37:41;99292.91;;;18.27;58.42
78825;BME280;68176;45.554;10.220;2023-10-31T17:40:11;99286.16;;;18.24;58.52
78825;BME280;68176;45.554;10.220;2023-10-31T17:42:41;99288.38;;;18.21;58.50
78825;BME280;68176;45.554;10.220;2023-10-31T17:45:11;99296.56;;;18.26;58.62
78825;BME280;68176;45.554;10.220;2023-10-31T17:47:41;99293.28;;;18.24;58.67
78825;BME280;68176;45.554;10.220;2023-10-31T17:50:11;99295.31;;;18.22;58.72
78825;BME280;68176;45.554;10.220;2023-10-31T17:52:41;99308.41;;;18.23;59.17
78825;BME280;68176;45.554;10.220;2023-10-31T17:55:11;99307.56;;;17.52;58.25
78825;BME280;68176;45.554;10.220;2023-10-31T17:57:41;99316.19;;;17.54;58.62
78825;BME280;68176;45.554;10.220;2023-10-31T18:00:11;99325.47;;;17.65;58.56
78825;BME280;68176;45.554;10.220;2023-10-31T18:02:41;99325.59;;;17.78;58.37
78825;BME280;68176;45.554;10.220;2023-10-31T18:05:11;99321.19;;;17.85;58.38
78825;BME280;68176;45.554;10.220;2023-10-31T18:07:41;99330.63;;;17.94;58.32
78825;BME280;68176;45.554;10.220;2023-10-31T18:10:11;99334.56;;;17.98;58.04
78825;BME280;68176;45.554;10.220;2023-10-31T18:12:41;99312.22;;;17.86;58.01
78825;BME280;68176;45.554;10.220;2023-10-31T18:15:11;99332.53;;;18.00;58.16
78825;BME280;68176;45.554;10.220;2023-10-31T18:17:41;99347.06;;;18.04;58.31
78825;BME280;68176;45.554;10.220;2023-10-31T18:20:11;99350.72;;;18.03;58.39
78825;BME280;68176;45.554;10.220;2023-10-31T18:22:41;99349.88;;;18.03;58.58
78825;BME280;68176;45.554;10.220;2023-10-31T18:25:11;99348.88;;;18.04;58.68
78825;BME280;68176;45.554;10.220;2023-10-31T18:27:41;99349.09;;;18.02;58.52
78825;BME280;68176;45.554;10.220;2023-10-31T18:30:11;99346.81;;;17.99;58.81
78825;BME280;68176;45.554;10.220;2023-10-31T18:32:41;99340.88;;;17.97;58.57
78825;BME280;68176;45.554;10.220;2023-10-31T18:35:11;99363.97;;;18.03;58.96
78825;BME280;68176;45.554;10.220;2023-10-31T18:37:47;99367.91;;;18.07;58.72
78825;BME280;68176;45.554;10.220;2023-10-31T18:40:14;99358.00;;;17.95;59.06
78825;BME280;68176;45.554;10.220;2023-10-31T18:42:41;99368.66;;;18.01;58.98
78825;BME280;68176;45.554;10.220;2023-10-31T18:45:11;99375.25;;;18.05;58.89
78825;BME280;68176;45.554;10.220;2023-10-31T18:47:41;99373.09;;;17.94;58.72
78825;BME280;68176;45.554;10.220;2023-10-31T18:50:11;99380.28;;;18.00;59.09
78825;BME280;68176;45.554;10.220;2023-10-31T18:52:41;99392.34;;;18.03;59.02
78825;BME280;68176;45.554;10.220;2023-10-31T18:55:11;99401.50;;;18.00;59.14
78825;BME280;68176;45.554;10.220;2023-10-31T18:57:41;99393.53;;;18.00;59.08
78825;BME280;68176;45.554;10.220;2023-10-31T19:00:12;99394.75;;;17.98;59.16
78825;BME280;68176;45.554;10.220;2023-10-31T19:02:41;99402.53;;;17.99;59.12
78825;BME280;68176;45.554;10.220;2023-10-31T19:05:11;99404.53;;;17.97;58.99
78825;BME280;68176;45.554;10.220;2023-10-31T19:07:41;99420.47;;;17.97;59.30
78825;BME280;68176;45.554;10.220;2023-10-31T19:10:11;99414.72;;;17.94;59.03
78825;BME280;68176;45.554;10.220;2023-10-31T19:12:41;99421.66;;;17.95;59.34
78825;BME280;68176;45.554;10.220;2023-10-31T19:15:11;99420.66;;;17.96;59.24
78825;BME280;68176;45.554;10.220;2023-10-31T19:17:41;99416.28;;;17.88;59.53
78825;BME280;68176;45.554;10.220;2023-10-31T19:20:11;99425.16;;;17.95;59.02
78825;BME280;68176;45.554;10.220;2023-10-31T19:22:41;99427.97;;;17.94;59.37
78825;BME280;68176;45.554;10.220;2023-10-31T19:25:11;99435.94;;;17.94;58.98
78825;BME280;68176;45.554;10.220;2023-10-31T19:27:41;99442.06;;;17.94;59.27
78825;BME280;68176;45.554;10.220;2023-10-31T19:30:12;99410.91;;;17.82;59.37
78825;BME280;68176;45.554;10.220;2023-10-31T19:32:43;99409.63;;;17.71;59.41
78825;BME280;68176;45.554;10.220;2023-10-31T19:35:13;99417.19;;;17.74;59.14
78825;BME280;68176;45.554;10.220;2023-10-31T19:37:44;99416.91;;;17.69;59.12
78825;BME280;68176;45.554;10.220;2023-10-31T19:40:36;99436.75;;;17.73;59.32
78825;BME280;68176;45.554;10.220;2023-10-31T19:43:07;99448.38;;;17.72;59.46
78825;BME280;68176;45.554;10.220;2023-10-31T19:45:37;99445.34;;;17.75;59.67
78825;BME280;68176;45.554;10.220;2023-10-31T19:48:06;99443.19;;;17.64;59.34
78825;BME280;68176;45.554;10.220;2023-10-31T19:50:37;99431.94;;;17.62;59.62
78825;BME280;68176;45.554;10.220;2023-10-31T19:53:04;99452.03;;;17.71;59.75
78825;BME280;68176;45.554;10.220;2023-10-31T19:55:34;99462.06;;;17.76;59.23
78825;BME280;68176;45.554;10.220;2023-10-31T19:58:01;99449.69;;;17.62;59.37
78825;BME280;68176;45.554;10.220;2023-10-31T20:00:32;99475.09;;;17.71;59.73
78825;BME280;68176;45.554;10.220;2023-10-31T20:03:01;99443.56;;;17.61;59.70
78825;BME280;68176;45.554;10.220;2023-10-31T20:05:34;99479.00;;;17.75;59.58
78825;BME280;68176;45.554;10.220;2023-10-31T20:08:39;99467.88;;;17.65;59.72
78825;BME280;68176;45.554;10.220;2023-10-31T20:11:26;99461.66;;;17.57;59.75
78825;BME280;68176;45.554;10.220;2023-10-31T20:14:10;99465.78;;;17.60;59.68
78825;BME280;68176;45.554;10.220;2023-10-31T20:42:56;99499.69;;;17.50;59.73
78825;BME280;68176;45.554;10.220;2023-10-31T20:45:24;99524.38;;;17.65;59.88
78825;BME280;68176;45.554;10.220;2023-10-31T20:47:50;99510.66;;;17.47;59.73
78825;BME280;68176;45.554;10.220;2023-10-31T21:47:58;99577.31;;;17.29;60.10
78825;BME280;68176;45.554;10.220;2023-10-31T21:50:24;99580.13;;;17.28;60.41
78825;BME280;68176;45.554;10.220;2023-10-31T21:52:51;99609.13;;;17.44;60.42
78825;BME280;68176;45.554;10.220;2023-10-31T21:55:21;99589.38;;;17.32;60.25
78825;BME280;68176;45.554;10.220;2023-10-31T22:00:23;99610.09;;;17.28;60.49
78825;BME280;68176;45.554;10.220;2023-10-31T22:02:51;99586.34;;;17.20;60.34
78825;BME280;68176;45.554;10.220;2023-10-31T22:05:21;99619.50;;;17.31;60.49
78825;BME280;68176;45.554;10.220;2023-10-31T22:07:51;99605.41;;;17.16;60.29
78825;BME280;68176;45.554;10.220;2023-10-31T22:10:21;99626.94;;;17.35;60.50
78825;BME280;68176;45.554;10.220;2023-10-31T22:12:51;99627.81;;;17.28;60.25